sensor_id;sensor_type;location;lat;lon;timestamp;P1;durP1;ratioP1;P2;durP2;ratioP2
48524;SDS011;34316;51.514;-0.178;2024-02-26T00:00:54;25.85;;;16.40;;
48524;SDS011;34316;51.514;-0.178;2024-02-26T00:02:56;21.13;;;15.88;;
48524;SDS011;34316;51.514;-0.178;2024-02-26T00:04:58;21.40;;;15.63;;
48524;SDS011;34316;51.514;-0.178;2024-02-26T00:07:00;26.40;;;17.00;;
48524;SDS011;34316;51.514;-0.178;2024-02-26T00:09:02;23.23;;;16.65;;
48524;SDS011;34316;51.514;-0.178;2024-02-26T00:11:07;24.25;;;17.58;;
48524;SDS011;34316;51.514;-0.178;2024-02-26T00:13:09;24.05;;;16.98;;
48524;SDS011;34316;51.514;-0.178;2024-02-26T00:15:11;23.77;;;15.93;;
48524;SDS011;34316;51.514;-0.178;2024-02-26T00:17:13;23.00;;;16.23;;
48524;SDS011;34316;51.514;-0.178;2024-02-26T00:19:16;24.52;;;16.40;;
48524;SDS011;34316;51.514;-0.178;2024-02-26T00:21:18;24.75;;;17.77;;
48524;SDS011;34316;51.514;-0.178;2024-02-26T00:23:20;24.15;;;18.58;;
48524;SDS011;34316;51.514;-0.178;2024-02-26T00:25:22;23.73;;;17.75;;
48524;SDS011;34316;51.514;-0.178;2024-02-26T00:27:24;24.98;;;17.67;;
48524;SDS011;34316;51.514;-0.178;2024-02-26T00:29:26;24.23;;;17.27;;
48524;SDS011;34316;51.514;-0.178;2024-02-26T00:31:28;23.33;;;16.65;;
48524;SDS011;34316;51.514;-0.178;2024-02-26T00:33:30;22.67;;;17.13;;
48524;SDS011;34316;51.514;-0.178;2024-02-26T00:35:32;24.75;;;17.60;;
48524;SDS011;34316;51.514;-0.178;2024-02-26T00:37:34;22.42;;;16.55;;
48524;SDS011;34316;51.514;-0.178;2024-02-26T00:39:36;22.17;;;16.63;;
48524;SDS011;34316;51.514;-0.178;2024-02-26T00:41:41;24.83;;;17.10;;
48524;SDS011;34316;51.514;-0.178;2024-02-26T00:43:44;23.88;;;16.52;;
48524;SDS011;34316;51.514;-0.178;2024-02-26T00:45:45;22.52;;;16.33;;
48524;SDS011;34316;51.514;-0.178;2024-02-26T00:47:48;25.02;;;16.90;;
48524;SDS011;34316;51.514;-0.178;2024-02-26T00:49:51;24.20;;;16.63;;
48524;SDS011;34316;51.514;-0.178;2024-02-26T00:51:53;24.60;;;17.60;;
48524;SDS011;34316;51.514;-0.178;2024-02-26T00:53:55;28.55;;;17.75;;
48524;SDS011;34316;51.514;-0.178;2024-02-26T00:55:57;23.60;;;17.92;;
48524;SDS011;34316;51.514;-0.178;2024-02-26T00:58:02;26.70;;;17.42;;
48524;SDS011;34316;51.514;-0.178;2024-02-26T01:00:04;26.20;;;18.13;;
48524;SDS011;34316;51.514;-0.178;2024-02-26T01:02:10;24.08;;;17.25;;
48524;SDS011;34316;51.514;-0.178;2024-02-26T01:04:12;26.85;;;17.38;;
48524;SDS011;34316;51.514;-0.178;2024-02-26T01:06:14;21.40;;;17.17;;
48524;SDS011;34316;51.514;-0.178;2024-02-26T01:08:16;24.08;;;16.70;;
48524;SDS011;34316;51.514;-0.178;2024-02-26T01:10:18;24.17;;;17.42;;
48524;SDS011;34316;51.514;-0.178;2024-02-26T01:12:19;23.05;;;16.88;;
48524;SDS011;34316;51.514;-0.178;2024-02-26T01:14:21;23.90;;;16.27;;
48524;SDS011;34316;51.514;-0.178;2024-02-26T01:16:23;22.77;;;15.40;;
48524;SDS011;34316;51.514;-0.178;2024-02-26T01:18:25;22.85;;;16.75;;
48524;SDS011;34316;51.514;-0.178;2024-02-26T01:20:29;25.52;;;16.75;;
48524;SDS011;34316;51.514;-0.178;2024-02-26T01:22:31;21.40;;;16.40;;
48524;SDS011;34316;51.514;-0.178;2024-02-26T01:24:32;23.40;;;16.75;;
48524;SDS011;34316;51.514;-0.178;2024-02-26T01:26:34;23.38;;;15.30;;
48524;SDS011;34316;51.514;-0.178;2024-02-26T01:28:36;21.65;;;15.93;;
48524;SDS011;34316;51.514;-0.178;2024-02-26T01:30:38;23.00;;;15.80;;
48524;SDS011;34316;51.514;-0.178;2024-02-26T01:32:40;20.65;;;15.60;;
48524;SDS011;34316;51.514;-0.178;2024-02-26T01:34:42;22.50;;;14.68;;
48524;SDS011;34316;51.514;-0.178;2024-02-26T01:36:44;18.92;;;14.63;;
48524;SDS011;34316;51.514;-0.178;2024-02-26T01:38:46;19.73;;;15.50;;
48524;SDS011;34316;51.514;-0.178;2024-02-26T01:40:48;20.30;;;15.98;;
48524;SDS011;34316;51.514;-0.178;2024-02-26T01:42:52;22.48;;;16.85;;
48524;SDS011;34316;51.514;-0.178;2024-02-26T01:44:54;26.98;;;15.45;;
48524;SDS011;34316;51.514;-0.178;2024-02-26T01:46:56;20.58;;;14.82;;
48524;SDS011;34316;51.514;-0.178;2024-02-26T01:48:57;22.33;;;16.13;;
48524;SDS011;34316;51.514;-0.178;2024-02-26T01:50:59;24.00;;;16.52;;
48524;SDS011;34316;51.514;-0.178;2024-02-26T01:53:01;21.05;;;15.88;;
48524;SDS011;34316;51.514;-0.178;2024-02-26T01:55:03;22.45;;;16.65;;
48524;SDS011;34316;51.514;-0.178;2024-02-26T01:57:06;22.95;;;15.68;;
48524;SDS011;34316;51.514;-0.178;2024-02-26T01:59:08;24.20;;;16.23;;
48524;SDS011;34316;51.514;-0.178;2024-02-26T02:01:10;24.83;;;17.85;;
48524;SDS011;34316;51.514;-0.178;2024-02-26T02:03:13;23.30;;;17.33;;
48524;SDS011;34316;51.514;-0.178;2024-02-26T02:05:15;27.30;;;18.98;;
48524;SDS011;34316;51.514;-0.178;2024-02-26T02:07:19;25.48;;;17.27;;
48524;SDS011;34316;51.514;-0.178;2024-02-26T02:09:21;22.95;;;18.13;;
48524;SDS011;34316;51.514;-0.178;2024-02-26T02:11:24;24.50;;;17.23;;
48524;SDS011;34316;51.514;-0.178;2024-02-26T02:13:27;24.73;;;18.00;;
48524;SDS011;34316;51.514;-0.178;2024-02-26T02:15:29;21.88;;;18.23;;
48524;SDS011;34316;51.514;-0.178;2024-02-26T02:17:31;25.23;;;18.80;;
48524;SDS011;34316;51.514;-0.178;2024-02-26T02:19:33;27.67;;;19.52;;
48524;SDS011;34316;51.514;-0.178;2024-02-26T02:21:35;24.67;;;19.52;;
48524;SDS011;34316;51.514;-0.178;2024-02-26T02:23:37;24.08;;;19.05;;
48524;SDS011;34316;51.514;-0.178;2024-02-26T02:25:39;27.23;;;19.15;;
48524;SDS011;34316;51.514;-0.178;2024-02-26T02:27:41;24.27;;;18.08;;
48524;SDS011;34316;51.514;-0.178;2024-02-26T02:29:43;24.85;;;17.90;;
48524;SDS011;34316;51.514;-0.178;2024-02-26T02:31:46;23.23;;;18.00;;
48524;SDS011;34316;51.514;-0.178;2024-02-26T02:33:48;21.20;;;18.05;;
48524;SDS011;34316;51.514;-0.178;2024-02-26T02:35:50;24.83;;;18.20;;
48524;SDS011;34316;51.514;-0.178;2024-02-26T02:39:57;26.75;;;18.83;;
48524;SDS011;34316;51.514;-0.178;2024-02-26T02:41:59;23.13;;;18.35;;
48524;SDS011;34316;51.514;-0.178;2024-02-26T02:44:01;23.88;;;19.02;;
48524;SDS011;34316;51.514;-0.178;2024-02-26T02:46:03;26.25;;;19.33;;
48524;SDS011;34316;51.514;-0.178;2024-02-26T02:48:05;25.08;;;19.02;;
48524;SDS011;34316;51.514;-0.178;2024-02-26T02:50:08;26.63;;;19.70;;
48524;SDS011;34316;51.514;-0.178;2024-02-26T02:52:10;26.90;;;20.30;;
48524;SDS011;34316;51.514;-0.178;2024-02-26T02:54:15;23.02;;;19.63;;
48524;SDS011;34316;51.514;-0.178;2024-02-26T02:56:19;26.33;;;19.88;;
48524;SDS011;34316;51.514;-0.178;2024-02-26T02:58:21;30.63;;;19.83;;
48524;SDS011;34316;51.514;-0.178;2024-02-26T03:00:23;25.75;;;20.30;;
48524;SDS011;34316;51.514;-0.178;2024-02-26T03:02:26;25.27;;;18.88;;
48524;SDS011;34316;51.514;-0.178;2024-02-26T03:04:28;28.55;;;20.23;;
48524;SDS011;34316;51.514;-0.178;2024-02-26T03:06:31;26.20;;;20.85;;
48524;SDS011;34316;51.514;-0.178;2024-02-26T03:08:33;26.02;;;20.13;;
48524;SDS011;34316;51.514;-0.178;2024-02-26T03:10:38;23.00;;;19.15;;
48524;SDS011;34316;51.514;-0.178;2024-02-26T03:12:39;23.92;;;18.73;;
48524;SDS011;34316;51.514;-0.178;2024-02-26T03:14:41;29.33;;;19.25;;
48524;SDS011;34316;51.514;-0.178;2024-02-26T03:16:43;23.85;;;18.90;;
48524;SDS011;34316;51.514;-0.178;2024-02-26T03:18:45;27.48;;;19.60;;
48524;SDS011;34316;51.514;-0.178;2024-02-26T03:20:48;24.52;;;18.92;;
48524;SDS011;34316;51.514;-0.178;2024-02-26T03:22:51;23.33;;;18.25;;
48524;SDS011;34316;51.514;-0.178;2024-02-26T03:24:52;23.63;;;19.27;;
48524;SDS011;34316;51.514;-0.178;2024-02-26T03:26:54;27.45;;;19.85;;
48524;SDS011;34316;51.514;-0.178;2024-02-26T03:28:57;26.65;;;20.50;;
48524;SDS011;34316;51.514;-0.178;2024-02-26T03:30:59;26.73;;;19.73;;
48524;SDS011;34316;51.514;-0.178;2024-02-26T03:33:02;25.70;;;18.98;;
48524;SDS011;34316;51.514;-0.178;2024-02-26T03:35:04;24.58;;;19.35;;
48524;SDS011;34316;51.514;-0.178;2024-02-26T03:37:07;24.50;;;19.73;;
48524;SDS011;34316;51.514;-0.178;2024-02-26T03:39:12;23.45;;;18.65;;
48524;SDS011;34316;51.514;-0.178;2024-02-26T03:41:14;24.48;;;18.27;;
48524;SDS011;34316;51.514;-0.178;2024-02-26T03:43:16;22.85;;;18.90;;
48524;SDS011;34316;51.514;-0.178;2024-02-26T03:45:18;25.77;;;19.05;;
48524;SDS011;34316;51.514;-0.178;2024-02-26T03:47:20;22.80;;;18.90;;
48524;SDS011;34316;51.514;-0.178;2024-02-26T03:49:22;24.65;;;19.05;;
48524;SDS011;34316;51.514;-0.178;2024-02-26T03:51:24;28.30;;;21.65;;
48524;SDS011;34316;51.514;-0.178;2024-02-26T03:53:28;27.75;;;20.48;;
48524;SDS011;34316;51.514;-0.178;2024-02-26T03:55:29;29.10;;;22.50;;
48524;SDS011;34316;51.514;-0.178;2024-02-26T03:57:31;28.65;;;22.13;;
48524;SDS011;34316;51.514;-0.178;2024-02-26T03:59:33;28.38;;;22.98;;
48524;SDS011;34316;51.514;-0.178;2024-02-26T04:01:35;27.67;;;22.63;;
48524;SDS011;34316;51.514;-0.178;2024-02-26T04:03:38;29.38;;;21.65;;
48524;SDS011;34316;51.514;-0.178;2024-02-26T04:05:40;27.02;;;23.13;;
48524;SDS011;34316;51.514;-0.178;2024-02-26T04:07:43;29.08;;;23.00;;
48524;SDS011;34316;51.514;-0.178;2024-02-26T04:09:44;30.30;;;24.25;;
48524;SDS011;34316;51.514;-0.178;2024-02-26T04:11:46;30.40;;;24.65;;
48524;SDS011;34316;51.514;-0.178;2024-02-26T04:13:48;29.52;;;24.08;;
48524;SDS011;34316;51.514;-0.178;2024-02-26T04:15:53;33.33;;;23.02;;
48524;SDS011;34316;51.514;-0.178;2024-02-26T04:17:55;32.85;;;22.33;;
48524;SDS011;34316;51.514;-0.178;2024-02-26T04:19:57;30.38;;;23.10;;
48524;SDS011;34316;51.514;-0.178;2024-02-26T04:21:59;31.45;;;24.38;;
48524;SDS011;34316;51.514;-0.178;2024-02-26T04:24:01;31.73;;;25.27;;
48524;SDS011;34316;51.514;-0.178;2024-02-26T04:26:04;33.08;;;25.40;;
48524;SDS011;34316;51.514;-0.178;2024-02-26T04:28:06;30.45;;;25.20;;
48524;SDS011;34316;51.514;-0.178;2024-02-26T04:30:08;27.52;;;23.00;;
48524;SDS011;34316;51.514;-0.178;2024-02-26T04:32:11;33.40;;;24.98;;
48524;SDS011;34316;51.514;-0.178;2024-02-26T04:34:13;34.35;;;24.42;;
48524;SDS011;34316;51.514;-0.178;2024-02-26T04:36:15;34.42;;;24.55;;
48524;SDS011;34316;51.514;-0.178;2024-02-26T04:38:17;30.08;;;23.67;;
48524;SDS011;34316;51.514;-0.178;2024-02-26T04:40:19;32.35;;;23.83;;
48524;SDS011;34316;51.514;-0.178;2024-02-26T04:42:21;28.50;;;22.52;;
48524;SDS011;34316;51.514;-0.178;2024-02-26T04:44:23;30.95;;;22.75;;
48524;SDS011;34316;51.514;-0.178;2024-02-26T04:46:25;31.30;;;24.88;;
48524;SDS011;34316;51.514;-0.178;2024-02-26T04:48:27;31.15;;;25.17;;
48524;SDS011;34316;51.514;-0.178;2024-02-26T04:50:29;32.15;;;24.98;;
48524;SDS011;34316;51.514;-0.178;2024-02-26T04:52:31;32.17;;;24.90;;
48524;SDS011;34316;51.514;-0.178;2024-02-26T04:54:32;33.65;;;25.75;;
48524;SDS011;34316;51.514;-0.178;2024-02-26T04:56:34;38.85;;;26.98;;
48524;SDS011;34316;51.514;-0.178;2024-02-26T04:58:36;36.35;;;27.48;;
48524;SDS011;34316;51.514;-0.178;2024-02-26T05:00:38;35.83;;;26.17;;
48524;SDS011;34316;51.514;-0.178;2024-02-26T05:02:40;34.30;;;27.90;;
48524;SDS011;34316;51.514;-0.178;2024-02-26T05:04:42;37.00;;;27.83;;
48524;SDS011;34316;51.514;-0.178;2024-02-26T05:06:44;37.53;;;28.70;;
48524;SDS011;34316;51.514;-0.178;2024-02-26T05:08:46;31.50;;;26.45;;
48524;SDS011;34316;51.514;-0.178;2024-02-26T05:10:48;34.63;;;27.23;;
48524;SDS011;34316;51.514;-0.178;2024-02-26T05:12:49;38.80;;;26.83;;
48524;SDS011;34316;51.514;-0.178;2024-02-26T05:14:52;38.25;;;27.23;;
48524;SDS011;34316;51.514;-0.178;2024-02-26T05:16:53;37.45;;;28.30;;
48524;SDS011;34316;51.514;-0.178;2024-02-26T05:18:56;34.80;;;29.55;;
48524;SDS011;34316;51.514;-0.178;2024-02-26T05:20:58;39.95;;;30.90;;
48524;SDS011;34316;51.514;-0.178;2024-02-26T05:23:00;41.38;;;30.25;;
48524;SDS011;34316;51.514;-0.178;2024-02-26T05:25:02;36.85;;;31.20;;
48524;SDS011;34316;51.514;-0.178;2024-02-26T05:27:05;42.15;;;31.65;;
48524;SDS011;34316;51.514;-0.178;2024-02-26T05:29:07;38.20;;;31.52;;
48524;SDS011;34316;51.514;-0.178;2024-02-26T05:31:08;47.60;;;33.53;;
48524;SDS011;34316;51.514;-0.178;2024-02-26T05:33:14;41.67;;;34.35;;
48524;SDS011;34316;51.514;-0.178;2024-02-26T05:35:19;45.10;;;36.80;;
48524;SDS011;34316;51.514;-0.178;2024-02-26T05:37:21;43.90;;;33.97;;
48524;SDS011;34316;51.514;-0.178;2024-02-26T05:39:23;40.85;;;33.55;;
48524;SDS011;34316;51.514;-0.178;2024-02-26T05:41:25;48.15;;;34.90;;
48524;SDS011;34316;51.514;-0.178;2024-02-26T05:43:28;47.33;;;37.97;;
48524;SDS011;34316;51.514;-0.178;2024-02-26T05:45:30;48.65;;;39.40;;
48524;SDS011;34316;51.514;-0.178;2024-02-26T05:47:32;56.58;;;42.22;;
48524;SDS011;34316;51.514;-0.178;2024-02-26T05:49:34;49.30;;;39.53;;
48524;SDS011;34316;51.514;-0.178;2024-02-26T05:51:36;46.63;;;35.97;;
48524;SDS011;34316;51.514;-0.178;2024-02-26T05:53:39;48.17;;;38.15;;
48524;SDS011;34316;51.514;-0.178;2024-02-26T05:55:42;44.70;;;36.17;;
48524;SDS011;34316;51.514;-0.178;2024-02-26T05:57:43;44.92;;;35.15;;
48524;SDS011;34316;51.514;-0.178;2024-02-26T05:59:45;48.53;;;35.72;;
48524;SDS011;34316;51.514;-0.178;2024-02-26T06:01:47;42.05;;;34.33;;
48524;SDS011;34316;51.514;-0.178;2024-02-26T06:03:50;45.85;;;34.70;;
48524;SDS011;34316;51.514;-0.178;2024-02-26T06:05:53;43.58;;;33.78;;
48524;SDS011;34316;51.514;-0.178;2024-02-26T06:07:55;45.22;;;33.05;;
48524;SDS011;34316;51.514;-0.178;2024-02-26T06:09:56;43.03;;;35.35;;
48524;SDS011;34316;51.514;-0.178;2024-02-26T06:11:58;40.78;;;32.80;;
48524;SDS011;34316;51.514;-0.178;2024-02-26T06:14:00;41.33;;;33.28;;
48524;SDS011;34316;51.514;-0.178;2024-02-26T06:16:04;45.88;;;33.08;;
48524;SDS011;34316;51.514;-0.178;2024-02-26T06:18:07;43.22;;;31.05;;
48524;SDS011;34316;51.514;-0.178;2024-02-26T06:20:10;45.00;;;33.80;;
48524;SDS011;34316;51.514;-0.178;2024-02-26T06:22:14;39.20;;;31.38;;
48524;SDS011;34316;51.514;-0.178;2024-02-26T06:24:16;41.65;;;31.70;;
48524;SDS011;34316;51.514;-0.178;2024-02-26T06:26:18;40.65;;;30.90;;
48524;SDS011;34316;51.514;-0.178;2024-02-26T06:28:20;34.72;;;29.15;;
48524;SDS011;34316;51.514;-0.178;2024-02-26T06:30:21;37.92;;;29.38;;
48524;SDS011;34316;51.514;-0.178;2024-02-26T06:32:23;36.63;;;29.50;;
48524;SDS011;34316;51.514;-0.178;2024-02-26T06:34:25;37.72;;;30.70;;
48524;SDS011;34316;51.514;-0.178;2024-02-26T06:36:27;40.63;;;31.67;;
48524;SDS011;34316;51.514;-0.178;2024-02-26T06:38:29;38.38;;;31.42;;
48524;SDS011;34316;51.514;-0.178;2024-02-26T06:40:31;37.78;;;31.80;;
48524;SDS011;34316;51.514;-0.178;2024-02-26T06:42:33;39.22;;;32.03;;
48524;SDS011;34316;51.514;-0.178;2024-02-26T06:44:35;41.58;;;29.60;;
48524;SDS011;34316;51.514;-0.178;2024-02-26T06:46:36;42.97;;;31.17;;
48524;SDS011;34316;51.514;-0.178;2024-02-26T06:48:38;41.40;;;28.90;;
48524;SDS011;34316;51.514;-0.178;2024-02-26T06:50:40;39.90;;;28.55;;
48524;SDS011;34316;51.514;-0.178;2024-02-26T06:52:44;36.95;;;27.80;;
48524;SDS011;34316;51.514;-0.178;2024-02-26T06:54:47;39.28;;;27.88;;
48524;SDS011;34316;51.514;-0.178;2024-02-26T06:56:50;31.73;;;25.57;;
48524;SDS011;34316;51.514;-0.178;2024-02-26T06:58:52;30.90;;;24.20;;
48524;SDS011;34316;51.514;-0.178;2024-02-26T07:00:53;35.38;;;25.08;;
48524;SDS011;34316;51.514;-0.178;2024-02-26T07:02:55;32.08;;;24.48;;
48524;SDS011;34316;51.514;-0.178;2024-02-26T07:04:57;32.05;;;22.15;;
48524;SDS011;34316;51.514;-0.178;2024-02-26T07:07:00;31.02;;;21.38;;
48524;SDS011;34316;51.514;-0.178;2024-02-26T07:09:02;31.00;;;19.02;;
48524;SDS011;34316;51.514;-0.178;2024-02-26T07:11:06;29.60;;;20.58;;
48524;SDS011;34316;51.514;-0.178;2024-02-26T07:13:09;28.35;;;21.15;;
48524;SDS011;34316;51.514;-0.178;2024-02-26T07:15:11;26.30;;;20.33;;
48524;SDS011;34316;51.514;-0.178;2024-02-26T07:17:13;26.55;;;18.33;;
48524;SDS011;34316;51.514;-0.178;2024-02-26T07:19:17;29.65;;;20.00;;
48524;SDS011;34316;51.514;-0.178;2024-02-26T07:21:19;26.80;;;19.48;;
48524;SDS011;34316;51.514;-0.178;2024-02-26T07:23:21;31.25;;;19.30;;
48524;SDS011;34316;51.514;-0.178;2024-02-26T07:25:23;31.10;;;19.15;;
48524;SDS011;34316;51.514;-0.178;2024-02-26T07:27:25;23.80;;;19.00;;
48524;SDS011;34316;51.514;-0.178;2024-02-26T07:29:27;26.85;;;18.88;;
48524;SDS011;34316;51.514;-0.178;2024-02-26T07:31:29;27.25;;;18.77;;
48524;SDS011;34316;51.514;-0.178;2024-02-26T07:33:31;26.10;;;17.92;;
48524;SDS011;34316;51.514;-0.178;2024-02-26T07:35:33;25.60;;;19.17;;
48524;SDS011;34316;51.514;-0.178;2024-02-26T07:37:35;31.33;;;19.40;;
48524;SDS011;34316;51.514;-0.178;2024-02-26T07:39:37;29.38;;;19.98;;
48524;SDS011;34316;51.514;-0.178;2024-02-26T07:41:39;27.67;;;20.63;;
48524;SDS011;34316;51.514;-0.178;2024-02-26T07:43:41;26.52;;;19.67;;
48524;SDS011;34316;51.514;-0.178;2024-02-26T07:45:43;32.47;;;19.92;;
48524;SDS011;34316;51.514;-0.178;2024-02-26T07:47:45;27.40;;;19.52;;
48524;SDS011;34316;51.514;-0.178;2024-02-26T07:49:48;27.58;;;18.60;;
48524;SDS011;34316;51.514;-0.178;2024-02-26T07:51:50;34.90;;;19.98;;
48524;SDS011;34316;51.514;-0.178;2024-02-26T07:53:52;30.00;;;19.67;;
48524;SDS011;34316;51.514;-0.178;2024-02-26T07:55:54;30.67;;;19.90;;
48524;SDS011;34316;51.514;-0.178;2024-02-26T07:57:56;30.38;;;20.23;;
48524;SDS011;34316;51.514;-0.178;2024-02-26T07:59:58;31.73;;;22.88;;
48524;SDS011;34316;51.514;-0.178;2024-02-26T08:02:00;33.65;;;24.85;;
48524;SDS011;34316;51.514;-0.178;2024-02-26T08:06:07;35.63;;;23.55;;
48524;SDS011;34316;51.514;-0.178;2024-02-26T08:08:10;57.10;;;30.75;;
48524;SDS011;34316;51.514;-0.178;2024-02-26T08:10:12;46.85;;;33.53;;
48524;SDS011;34316;51.514;-0.178;2024-02-26T08:12:14;48.17;;;33.53;;
48524;SDS011;34316;51.514;-0.178;2024-02-26T08:14:15;52.25;;;34.53;;
48524;SDS011;34316;51.514;-0.178;2024-02-26T08:16:17;53.55;;;38.15;;
48524;SDS011;34316;51.514;-0.178;2024-02-26T08:18:20;57.05;;;38.25;;
48524;SDS011;34316;51.514;-0.178;2024-02-26T08:20:22;58.08;;;39.75;;
48524;SDS011;34316;51.514;-0.178;2024-02-26T08:22:23;51.03;;;38.70;;
48524;SDS011;34316;51.514;-0.178;2024-02-26T08:24:25;53.40;;;40.05;;
48524;SDS011;34316;51.514;-0.178;2024-02-26T08:26:27;65.05;;;41.30;;
48524;SDS011;34316;51.514;-0.178;2024-02-26T08:28:29;53.25;;;39.92;;
48524;SDS011;34316;51.514;-0.178;2024-02-26T08:30:31;58.22;;;38.72;;
48524;SDS011;34316;51.514;-0.178;2024-02-26T08:32:33;55.95;;;40.38;;
48524;SDS011;34316;51.514;-0.178;2024-02-26T08:34:34;66.35;;;40.33;;
48524;SDS011;34316;51.514;-0.178;2024-02-26T08:36:36;67.05;;;40.58;;
48524;SDS011;34316;51.514;-0.178;2024-02-26T08:38:38;57.00;;;42.03;;
48524;SDS011;34316;51.514;-0.178;2024-02-26T08:40:40;54.80;;;41.20;;
48524;SDS011;34316;51.514;-0.178;2024-02-26T08:42:42;62.13;;;39.50;;
48524;SDS011;34316;51.514;-0.178;2024-02-26T08:44:44;49.53;;;35.38;;
48524;SDS011;34316;51.514;-0.178;2024-02-26T08:46:46;49.50;;;36.42;;
48524;SDS011;34316;51.514;-0.178;2024-02-26T08:48:49;61.20;;;41.50;;
48524;SDS011;34316;51.514;-0.178;2024-02-26T08:50:51;71.10;;;52.53;;
48524;SDS011;34316;51.514;-0.178;2024-02-26T08:52:53;67.18;;;47.42;;
48524;SDS011;34316;51.514;-0.178;2024-02-26T08:54:55;57.10;;;39.55;;
48524;SDS011;34316;51.514;-0.178;2024-02-26T08:56:58;58.47;;;39.33;;
48524;SDS011;34316;51.514;-0.178;2024-02-26T08:59:00;53.28;;;37.17;;
48524;SDS011;34316;51.514;-0.178;2024-02-26T09:01:05;54.03;;;35.33;;
48524;SDS011;34316;51.514;-0.178;2024-02-26T09:03:07;53.17;;;35.72;;
48524;SDS011;34316;51.514;-0.178;2024-02-26T09:05:09;54.70;;;36.25;;
48524;SDS011;34316;51.514;-0.178;2024-02-26T09:07:11;47.72;;;34.63;;
48524;SDS011;34316;51.514;-0.178;2024-02-26T09:09:13;51.13;;;35.17;;
48524;SDS011;34316;51.514;-0.178;2024-02-26T09:11:15;54.58;;;36.80;;
48524;SDS011;34316;51.514;-0.178;2024-02-26T09:13:17;58.55;;;35.60;;
48524;SDS011;34316;51.514;-0.178;2024-02-26T09:15:20;40.83;;;27.35;;
48524;SDS011;34316;51.514;-0.178;2024-02-26T09:17:22;72.38;;;41.33;;
48524;SDS011;34316;51.514;-0.178;2024-02-26T09:19:25;63.53;;;36.00;;
48524;SDS011;34316;51.514;-0.178;2024-02-26T09:21:29;50.05;;;30.52;;
48524;SDS011;34316;51.514;-0.178;2024-02-26T09:23:32;29.15;;;16.65;;
48524;SDS011;34316;51.514;-0.178;2024-02-26T09:25:34;32.88;;;22.38;;
48524;SDS011;34316;51.514;-0.178;2024-02-26T09:27:36;19.58;;;10.60;;
48524;SDS011;34316;51.514;-0.178;2024-02-26T09:29:43;16.92;;;9.73;;
48524;SDS011;34316;51.514;-0.178;2024-02-26T09:31:45;16.35;;;9.50;;
48524;SDS011;34316;51.514;-0.178;2024-02-26T09:33:49;14.13;;;8.07;;
48524;SDS011;34316;51.514;-0.178;2024-02-26T09:35:51;15.88;;;9.65;;
48524;SDS011;34316;51.514;-0.178;2024-02-26T09:37:53;14.70;;;8.43;;
48524;SDS011;34316;51.514;-0.178;2024-02-26T09:39:55;13.57;;;9.32;;
48524;SDS011;34316;51.514;-0.178;2024-02-26T09:41:57;19.83;;;9.10;;
48524;SDS011;34316;51.514;-0.178;2024-02-26T09:44:01;13.48;;;8.90;;
48524;SDS011;34316;51.514;-0.178;2024-02-26T09:46:04;13.70;;;8.27;;
48524;SDS011;34316;51.514;-0.178;2024-02-26T09:48:08;15.32;;;8.43;;
48524;SDS011;34316;51.514;-0.178;2024-02-26T09:50:10;14.95;;;8.60;;
48524;SDS011;34316;51.514;-0.178;2024-02-26T09:54:17;10.43;;;7.55;;
48524;SDS011;34316;51.514;-0.178;2024-02-26T09:56:19;14.02;;;7.65;;
48524;SDS011;34316;51.514;-0.178;2024-02-26T09:58:22;9.15;;;6.70;;
48524;SDS011;34316;51.514;-0.178;2024-02-26T10:00:24;9.43;;;6.90;;
48524;SDS011;34316;51.514;-0.178;2024-02-26T10:02:26;10.48;;;6.90;;
48524;SDS011;34316;51.514;-0.178;2024-02-26T10:04:30;10.18;;;6.85;;
48524;SDS011;34316;51.514;-0.178;2024-02-26T10:06:33;9.70;;;6.90;;
48524;SDS011;34316;51.514;-0.178;2024-02-26T10:08:35;11.13;;;7.32;;
48524;SDS011;34316;51.514;-0.178;2024-02-26T10:10:38;13.95;;;7.90;;
48524;SDS011;34316;51.514;-0.178;2024-02-26T10:12:40;11.00;;;6.90;;
48524;SDS011;34316;51.514;-0.178;2024-02-26T10:14:42;9.10;;;6.40;;
48524;SDS011;34316;51.514;-0.178;2024-02-26T10:16:44;9.52;;;7.13;;
48524;SDS011;34316;51.514;-0.178;2024-02-26T10:18:49;10.60;;;6.10;;
48524;SDS011;34316;51.514;-0.178;2024-02-26T10:21:00;9.20;;;6.75;;
48524;SDS011;34316;51.514;-0.178;2024-02-26T10:23:05;8.27;;;6.25;;
48524;SDS011;34316;51.514;-0.178;2024-02-26T10:25:08;7.32;;;6.05;;
48524;SDS011;34316;51.514;-0.178;2024-02-26T10:27:10;8.55;;;6.90;;
48524;SDS011;34316;51.514;-0.178;2024-02-26T10:29:12;9.60;;;6.88;;
48524;SDS011;34316;51.514;-0.178;2024-02-26T10:31:14;8.60;;;6.38;;
48524;SDS011;34316;51.514;-0.178;2024-02-26T10:33:16;9.45;;;6.75;;
48524;SDS011;34316;51.514;-0.178;2024-02-26T10:35:18;9.93;;;6.22;;
48524;SDS011;34316;51.514;-0.178;2024-02-26T10:37:22;9.43;;;6.55;;
48524;SDS011;34316;51.514;-0.178;2024-02-26T10:39:27;13.73;;;6.75;;
48524;SDS011;34316;51.514;-0.178;2024-02-26T10:41:29;10.68;;;6.88;;
48524;SDS011;34316;51.514;-0.178;2024-02-26T10:43:31;11.98;;;6.22;;
48524;SDS011;34316;51.514;-0.178;2024-02-26T10:45:32;13.13;;;6.53;;
48524;SDS011;34316;51.514;-0.178;2024-02-26T10:47:39;9.20;;;6.70;;
48524;SDS011;34316;51.514;-0.178;2024-02-26T10:49:48;8.90;;;5.75;;
48524;SDS011;34316;51.514;-0.178;2024-02-26T10:51:55;12.07;;;6.18;;
48524;SDS011;34316;51.514;-0.178;2024-02-26T10:53:59;11.27;;;6.53;;
48524;SDS011;34316;51.514;-0.178;2024-02-26T10:56:04;9.45;;;5.82;;
48524;SDS011;34316;51.514;-0.178;2024-02-26T10:58:06;10.02;;;5.93;;
48524;SDS011;34316;51.514;-0.178;2024-02-26T11:00:10;10.23;;;5.72;;
48524;SDS011;34316;51.514;-0.178;2024-02-26T11:02:15;11.23;;;6.47;;
48524;SDS011;34316;51.514;-0.178;2024-02-26T11:04:17;8.80;;;5.95;;
48524;SDS011;34316;51.514;-0.178;2024-02-26T11:06:20;9.50;;;5.88;;
48524;SDS011;34316;51.514;-0.178;2024-02-26T11:08:23;9.48;;;6.45;;
48524;SDS011;34316;51.514;-0.178;2024-02-26T11:10:26;10.07;;;5.93;;
48524;SDS011;34316;51.514;-0.178;2024-02-26T11:12:30;7.65;;;5.70;;
48524;SDS011;34316;51.514;-0.178;2024-02-26T11:14:34;11.02;;;6.32;;
48524;SDS011;34316;51.514;-0.178;2024-02-26T11:18:39;8.10;;;5.50;;
48524;SDS011;34316;51.514;-0.178;2024-02-26T11:22:45;7.43;;;5.63;;
48524;SDS011;34316;51.514;-0.178;2024-02-26T11:24:47;8.05;;;5.75;;
48524;SDS011;34316;51.514;-0.178;2024-02-26T11:26:50;9.63;;;5.22;;
48524;SDS011;34316;51.514;-0.178;2024-02-26T11:29:01;13.18;;;6.15;;
48524;SDS011;34316;51.514;-0.178;2024-02-26T11:31:04;10.00;;;6.00;;
48524;SDS011;34316;51.514;-0.178;2024-02-26T11:33:06;11.35;;;8.55;;
48524;SDS011;34316;51.514;-0.178;2024-02-26T11:35:10;9.30;;;5.80;;
48524;SDS011;34316;51.514;-0.178;2024-02-26T11:37:12;10.98;;;5.53;;
48524;SDS011;34316;51.514;-0.178;2024-02-26T11:39:15;6.90;;;5.85;;
48524;SDS011;34316;51.514;-0.178;2024-02-26T11:41:18;6.45;;;5.60;;
48524;SDS011;34316;51.514;-0.178;2024-02-26T11:45:50;9.45;;;5.78;;
48524;SDS011;34316;51.514;-0.178;2024-02-26T11:47:56;10.63;;;6.35;;
48524;SDS011;34316;51.514;-0.178;2024-02-26T11:49:58;10.52;;;5.88;;
48524;SDS011;34316;51.514;-0.178;2024-02-26T11:52:00;7.50;;;5.65;;
48524;SDS011;34316;51.514;-0.178;2024-02-26T11:54:08;7.78;;;5.10;;
48524;SDS011;34316;51.514;-0.178;2024-02-26T11:58:19;10.52;;;5.57;;
48524;SDS011;34316;51.514;-0.178;2024-02-26T12:00:22;11.85;;;5.40;;
48524;SDS011;34316;51.514;-0.178;2024-02-26T12:04:45;8.93;;;5.05;;
48524;SDS011;34316;51.514;-0.178;2024-02-26T12:06:48;11.90;;;5.95;;